Home > Products > Valid Products > FWO

000
SHUS65 KGJT 162014
FWOGJT

DAILY FIRE WEATHER OBSERVATION
NATIONAL WEATHER SERVICE GRAND JUNCTION CO
114 PM  WED APR 16 2014

STATE OF THE WEATHER (W)               2
DRY BULB TEMPERATURE                   55   DEGREES FAHRENHEIT
RELATIVE HUMIDITY (RH)                 17   PERCENT
LIGHTNING ACTIVITY LEVEL
  (LAL - MIDNIGHT TO 2 PM)             1
WIND DIRECTION                         225  DEGREES (C IF CALM)
WIND SPEED                             5    MPH
MAX TEMP (2 PM - 2 PM)                 59   DEGREES FAHRENHEIT
MIN TEMP (2 PM - 2 PM)                 34   DEGREES FAHRENHEIT
MAX RH (2 PM - 2 PM)                   75   PERCENT
MIN RH (2 PM - 2 PM)                   15   PERCENT
PCPN DURATION                          0.0  HOURS
PCPN AMT (2 PM - 2 PM)                 0.0  INCHES
LAL (2 PM - 2 PM)                      1

$$

METAR KGJT 161953Z 21004KT 10SM SCT100 13/M12 A2992 RMK AO2
      SLP108 T01281117





000
SHUS65 KGJT 152013
FWOGJT

DAILY FIRE WEATHER OBSERVATION
NATIONAL WEATHER SERVICE GRAND JUNCTION CO
213 PM MDT TUE APR 15 2014

STATE OF THE WEATHER (W)               2
DRY BULB TEMPERATURE                   55   DEGREES FAHRENHEIT
RELATIVE HUMIDITY (RH)                 21   PERCENT
LIGHTNING ACTIVITY LEVEL
  (LAL - MIDNIGHT TO 2 PM)             1
WIND DIRECTION                         315  DEGREES (C IF CALM)
WIND SPEED                             7    MPH
MAX TEMP (2 PM - 2 PM)                 55   DEGREES FAHRENHEIT
MIN TEMP (2 PM - 2 PM)                 29   DEGREES FAHRENHEIT
MAX RH (2 PM - 2 PM)                   72   PERCENT
MIN RH (2 PM - 2 PM)                   19   PERCENT
PCPN DURATION                          0.0  HOURS
PCPN AMT (2 PM - 2 PM)                 0.0  INCHES
LAL (2 PM - 2 PM)                      1

$$

METAR KGJT 151953Z 32006KT 10SM CLR 13/M09 A3000 RMK AO2 SLP141
      T01281089





000
SHUS65 KGJT 142016
FWOGJT

DAILY FIRE WEATHER OBSERVATION
NATIONAL WEATHER SERVICE GRAND JUNCTION CO
112 PM  MON APR 14 2014

STATE OF THE WEATHER (W)               0
DRY BULB TEMPERATURE                   42   DEGREES FAHRENHEIT
RELATIVE HUMIDITY (RH)                 29   PERCENT
LIGHTNING ACTIVITY LEVEL
  (LAL - MIDNIGHT TO 2 PM)             1
WIND DIRECTION                         C    DEGREES (C IF CALM)
WIND SPEED                             0    MPH
MAX TEMP (2 PM - 2 PM)                 51   DEGREES FAHRENHEIT
MIN TEMP (2 PM - 2 PM)                 24   DEGREES FAHRENHEIT
MAX RH (2 PM - 2 PM)                   82   PERCENT
MIN RH (2 PM - 2 PM)                   29   PERCENT
PCPN DURATION                          1.8  HOURS
PCPN AMT (2 PM - 2 PM)                 0.01 INCHES
LAL (2 PM - 2 PM)                      2

$$

METAR KGJT 141953Z 00000KT 10SM CLR 06/M11 A3033 RMK AO2 SLP277
      T00561111





    US Dept of Commerce
    National Oceanic and Atmospheric Administration
    National Weather Service
    1325 East West Highway
    Silver Spring, MD 20910
    Page Author: NWS Internet Services Team
Disclaimer
Information Quality
Credits
Glossary
Privacy Policy
Freedom of Information Act (FOIA)
About Us
Career Opportunities